createdAt,value
2019-02-20T00:01:28.654Z,12.57
2019-02-20T00:04:18.815Z,12.63
2019-02-20T00:07:09.074Z,12.87
2019-02-20T00:10:01.133Z,14.30
2019-02-20T00:12:52.735Z,27.77
2019-02-20T00:15:43.173Z,18.07
2019-02-20T00:18:33.588Z,14.93
2019-02-20T00:21:24.026Z,12.47
2019-02-20T00:24:14.475Z,12.87
2019-02-20T00:27:04.916Z,12.50
2019-02-20T00:29:55.198Z,11.07
2019-02-20T00:32:45.946Z,11.43
2019-02-20T00:35:36.435Z,10.23
2019-02-20T00:38:26.834Z,12.73
2019-02-20T00:41:16.776Z,11.73
2019-02-20T00:44:26.316Z,12.77
2019-02-20T00:47:33.951Z,13.50
2019-02-20T00:50:25.954Z,25.50
2019-02-20T00:53:21.874Z,22.30
2019-02-20T00:56:12.513Z,21.53
2019-02-20T00:59:03.309Z,19.83
2019-02-20T01:01:53.995Z,19.00
2019-02-20T01:04:44.176Z,17.20
2019-02-20T01:07:34.415Z,16.37
2019-02-20T01:10:25.874Z,15.63
2019-02-20T01:13:16.759Z,14.63
2019-02-20T01:16:07.383Z,10.00
2019-02-20T01:18:58.175Z,11.03
2019-02-20T01:21:48.782Z,9.80
2019-02-20T01:24:38.835Z,9.10
2019-02-20T01:27:28.923Z,9.20
2019-02-20T01:30:19.394Z,9.53
2019-02-20T01:33:09.734Z,9.37
2019-02-20T01:36:02.195Z,9.40
2019-02-20T01:38:53.698Z,9.03
2019-02-20T01:41:43.854Z,10.67
2019-02-20T01:44:34.594Z,10.70
2019-02-20T01:47:24.833Z,11.17
2019-02-20T01:50:15.737Z,10.77
2019-02-20T01:53:10.248Z,10.53
2019-02-20T01:55:58.274Z,9.90
2019-02-20T01:58:48.434Z,9.43
2019-02-20T02:01:39.015Z,12.13
2019-02-20T02:04:29.395Z,9.43
2019-02-20T02:07:19.937Z,10.50
2019-02-20T02:10:10.375Z,10.83
2019-02-20T02:13:01.555Z,10.03
2019-02-20T02:15:52.274Z,10.30
2019-02-20T02:18:42.814Z,10.17
2019-02-20T02:21:33.055Z,10.30
2019-02-20T02:24:23.288Z,12.83
2019-02-20T02:27:14.124Z,12.10
2019-02-20T02:30:05.376Z,12.37
2019-02-20T02:32:57.343Z,12.97
2019-02-20T02:35:48.094Z,13.90
2019-02-20T02:38:38.979Z,13.53
2019-02-20T02:41:29.564Z,11.57
2019-02-20T02:44:20.914Z,13.90
2019-02-20T02:47:11.355Z,13.60
2019-02-20T02:50:02.093Z,13.00
2019-02-20T02:52:52.434Z,12.40
2019-02-20T02:55:42.545Z,12.30
2019-02-20T02:58:32.926Z,12.93
2019-02-20T03:01:53.312Z,12.60
2019-02-20T03:04:44.614Z,13.40
2019-02-20T03:07:35.214Z,12.47
2019-02-20T03:10:26.014Z,13.70
2019-02-20T03:13:17.553Z,13.93
2019-02-20T03:16:07.955Z,13.00
2019-02-20T03:18:58.617Z,13.33
2019-02-20T03:21:49.036Z,14.10
2019-02-20T03:24:39.773Z,14.50
2019-02-20T03:27:30.680Z,12.23
2019-02-20T03:30:21.211Z,12.27
2019-02-20T03:33:11.823Z,12.20
2019-02-20T03:36:02.495Z,12.53
2019-02-20T03:38:53.699Z,13.97
2019-02-20T03:41:44.234Z,12.53
2019-02-20T03:44:34.275Z,11.67
2019-02-20T03:47:25.079Z,11.67
2019-02-20T03:50:15.254Z,11.80
2019-02-20T03:53:05.234Z,11.30
2019-02-20T03:55:56.754Z,11.10
2019-02-20T03:58:47.091Z,12.07
2019-02-20T04:01:37.834Z,11.77
2019-02-20T04:04:28.869Z,12.43
2019-02-20T04:07:20.893Z,13.20
2019-02-20T04:10:12.077Z,12.47
2019-02-20T04:13:02.535Z,12.77
2019-02-20T04:15:52.554Z,13.37
2019-02-20T04:18:43.696Z,13.27
2019-02-20T04:21:35.297Z,15.67
2019-02-20T04:24:26.164Z,16.77
2019-02-20T04:27:16.715Z,16.73
2019-02-20T04:30:07.295Z,15.97
2019-02-20T04:32:58.517Z,15.93
2019-02-20T04:35:49.653Z,12.70
2019-02-20T04:38:39.914Z,14.13
2019-02-20T04:41:30.292Z,15.30
2019-02-20T04:44:20.540Z,15.37
2019-02-20T04:47:10.839Z,17.47
2019-02-20T04:50:01.514Z,15.80
2019-02-20T04:52:52.396Z,15.27
2019-02-20T04:55:42.371Z,15.20
2019-02-20T04:58:33.094Z,15.33
2019-02-20T05:01:23.114Z,13.93
2019-02-20T05:04:13.816Z,12.93
2019-02-20T05:07:04.939Z,13.53
2019-02-20T05:09:55.151Z,16.37
2019-02-20T05:12:45.494Z,12.40
2019-02-20T05:15:35.508Z,13.83
2019-02-20T05:18:25.061Z,12.27
2019-02-20T05:21:15.274Z,13.00
2019-02-20T05:24:06.021Z,12.17
2019-02-20T05:26:55.923Z,15.87
2019-02-20T05:29:46.495Z,13.47
2019-02-20T05:32:37.122Z,14.17
2019-02-20T05:35:27.287Z,14.27
2019-02-20T05:38:18.175Z,15.67
2019-02-20T05:41:08.935Z,15.40
2019-02-20T05:43:58.957Z,14.07
2019-02-20T05:46:49.153Z,16.17
2019-02-20T05:49:39.033Z,25.30
2019-02-20T05:52:29.674Z,22.00
2019-02-20T05:55:19.891Z,21.03
2019-02-20T05:58:10.315Z,20.20
2019-02-20T06:01:00.495Z,23.27
2019-02-20T06:03:50.653Z,24.90
2019-02-20T06:06:40.299Z,27.93
2019-02-20T06:09:31.133Z,29.70
2019-02-20T06:12:21.994Z,33.57
2019-02-20T06:15:11.910Z,24.73
2019-02-20T06:18:02.438Z,25.00
2019-02-20T06:20:53.696Z,20.60
2019-02-20T06:23:44.576Z,19.10
2019-02-20T06:26:34.694Z,20.17
2019-02-20T06:29:25.358Z,26.93
2019-02-20T06:32:15.374Z,23.23
2019-02-20T06:35:05.857Z,26.43
2019-02-20T06:37:56.938Z,19.27
2019-02-20T06:40:46.789Z,18.83
2019-02-20T06:43:37.073Z,16.93
2019-02-20T06:46:27.383Z,16.73
2019-02-20T06:49:17.873Z,21.00
2019-02-20T06:52:08.267Z,24.20
2019-02-20T06:54:59.129Z,18.43
2019-02-20T06:57:48.922Z,19.07
2019-02-20T07:00:39.033Z,20.57
2019-02-20T07:03:29.078Z,17.33
2019-02-20T07:06:34.335Z,17.17
2019-02-20T07:10:28.114Z,19.83
2019-02-20T07:13:44.821Z,15.87
2019-02-20T07:16:59.661Z,19.03
2019-02-20T07:20:15.315Z,18.13
2019-02-20T07:23:37.175Z,19.43
2019-02-20T07:26:54.121Z,18.27
2019-02-20T07:29:47.574Z,17.23
2019-02-20T07:32:37.814Z,18.33
2019-02-20T07:35:27.741Z,17.30
2019-02-20T07:38:18.615Z,18.17
2019-02-20T07:41:08.419Z,15.17
2019-02-20T07:43:58.714Z,16.03
2019-02-20T07:46:48.574Z,17.03
2019-02-20T07:49:38.899Z,16.63
2019-02-20T07:52:32.203Z,18.03
2019-02-20T07:55:22.487Z,18.70
2019-02-20T07:58:12.185Z,18.03
2019-02-20T08:01:02.553Z,16.33
2019-02-20T08:03:52.639Z,15.43
2019-02-20T08:06:42.614Z,14.03
2019-02-20T08:09:32.697Z,11.80
2019-02-20T08:12:23.455Z,13.47
2019-02-20T08:15:13.616Z,11.67
2019-02-20T08:18:04.194Z,11.37
2019-02-20T08:20:54.061Z,10.93
2019-02-20T08:23:44.356Z,9.90
2019-02-20T08:26:34.474Z,9.80
2019-02-20T08:29:24.342Z,9.70
2019-02-20T08:32:14.479Z,9.73
2019-02-20T08:35:04.507Z,8.93
2019-02-20T08:37:54.595Z,9.03
2019-02-20T08:40:44.847Z,8.47
2019-02-20T08:43:34.993Z,8.40
2019-02-20T08:46:24.832Z,8.63
2019-02-20T08:49:14.897Z,9.20
2019-02-20T08:52:05.411Z,10.37
2019-02-20T08:54:56.323Z,12.17
2019-02-20T08:57:46.161Z,10.63
2019-02-20T09:00:36.083Z,11.03
2019-02-20T09:03:27.369Z,11.50
2019-02-20T09:06:17.598Z,11.50
2019-02-20T09:09:08.057Z,10.30
2019-02-20T09:11:59.763Z,9.53
2019-02-20T09:14:50.239Z,9.47
2019-02-20T09:17:40.343Z,9.37
2019-02-20T09:20:30.395Z,8.10
2019-02-20T09:23:20.191Z,8.57
2019-02-20T09:26:10.441Z,7.70
2019-02-20T09:29:00.458Z,9.40
2019-02-20T09:31:50.562Z,6.80
2019-02-20T09:34:40.376Z,5.37
2019-02-20T09:37:30.344Z,11.90
2019-02-20T09:40:20.193Z,5.40
2019-02-20T09:43:10.337Z,6.13
2019-02-20T09:46:00.351Z,6.80
2019-02-20T09:48:50.590Z,6.63
2019-02-20T09:51:41.525Z,5.90
2019-02-20T09:54:31.748Z,6.50
2019-02-20T09:57:25.102Z,7.23
2019-02-20T10:00:15.711Z,5.63
2019-02-20T10:03:05.570Z,6.03
2019-02-20T10:05:55.297Z,7.23
2019-02-20T10:08:45.206Z,5.83
2019-02-20T10:11:35.710Z,7.43
2019-02-20T10:14:25.874Z,6.57
2019-02-20T10:17:15.982Z,6.20
2019-02-20T10:20:06.282Z,12.33
2019-02-20T10:22:56.786Z,5.33
2019-02-20T10:25:47.026Z,6.17
2019-02-20T10:28:36.877Z,8.37
2019-02-20T10:31:26.719Z,8.47
2019-02-20T10:34:16.682Z,6.27
2019-02-20T10:37:07.623Z,7.07
2019-02-20T10:39:57.894Z,6.50
2019-02-20T10:42:48.414Z,6.47
2019-02-20T10:45:38.812Z,7.10
2019-02-20T10:48:29.055Z,6.17
2019-02-20T10:51:19.293Z,7.20
2019-02-20T10:54:09.353Z,6.83
2019-02-20T10:56:59.493Z,5.50
2019-02-20T10:59:49.304Z,7.07
2019-02-20T11:02:39.324Z,6.30
2019-02-20T11:05:30.014Z,5.73
2019-02-20T11:08:20.537Z,5.30
2019-02-20T11:11:10.653Z,7.13
2019-02-20T11:14:00.895Z,5.30
2019-02-20T11:16:51.647Z,5.83
2019-02-20T11:19:42.073Z,5.80
2019-02-20T11:22:33.183Z,5.07
2019-02-20T11:25:23.778Z,5.60
2019-02-20T11:28:14.291Z,6.40
2019-02-20T11:31:04.434Z,5.50
2019-02-20T11:33:54.433Z,5.73
2019-02-20T11:36:44.195Z,5.70
2019-02-20T11:39:37.630Z,5.37
2019-02-20T11:42:26.173Z,4.87
2019-02-20T11:45:16.553Z,5.93
2019-02-20T11:48:07.665Z,5.27
2019-02-20T11:50:58.476Z,5.27
2019-02-20T11:53:49.374Z,5.27
2019-02-20T11:56:39.338Z,5.57
2019-02-20T11:59:29.541Z,5.97
2019-02-20T12:02:20.613Z,4.37
2019-02-20T12:05:11.671Z,4.47
2019-02-20T12:08:02.328Z,4.43
2019-02-20T12:10:52.251Z,4.53
2019-02-20T12:13:42.255Z,4.40
2019-02-20T12:16:33.006Z,3.73
2019-02-20T12:19:25.318Z,4.37
2019-02-20T12:22:15.735Z,4.50
2019-02-20T12:25:06.214Z,4.40
2019-02-20T12:27:56.439Z,4.67
2019-02-20T12:30:46.655Z,5.03
2019-02-20T12:33:36.576Z,4.63
2019-02-20T12:36:26.496Z,4.97
2019-02-20T12:39:16.574Z,4.47
2019-02-20T12:42:06.749Z,4.20
2019-02-20T12:44:58.573Z,4.33
2019-02-20T12:47:49.435Z,4.03
2019-02-20T12:50:39.643Z,4.23
2019-02-20T12:53:29.658Z,4.30
2019-02-20T12:56:19.934Z,5.10
2019-02-20T12:59:10.160Z,4.40
2019-02-20T13:02:00.813Z,11.07
2019-02-20T13:04:51.032Z,9.17
2019-02-20T13:07:41.377Z,4.83
2019-02-20T13:10:32.073Z,6.30
2019-02-20T13:13:22.494Z,22.30
2019-02-20T13:16:13.329Z,5.77
2019-02-20T13:19:04.033Z,23.17
2019-02-20T13:21:54.392Z,6.37
2019-02-20T13:24:44.459Z,4.73
2019-02-20T13:27:35.093Z,5.30
2019-02-20T13:30:25.303Z,5.37
2019-02-20T13:33:15.378Z,5.20
2019-02-20T13:36:06.286Z,4.70
2019-02-20T13:38:56.214Z,4.60
2019-02-20T13:41:47.135Z,4.10
2019-02-20T13:44:37.515Z,4.13
2019-02-20T13:47:28.236Z,4.27
2019-02-20T13:50:18.578Z,4.03
2019-02-20T13:53:08.739Z,5.27
2019-02-20T13:55:58.926Z,4.57
2019-02-20T13:58:50.974Z,4.63
2019-02-20T14:01:40.943Z,3.93
2019-02-20T14:04:32.581Z,4.53
2019-02-20T14:07:23.221Z,3.60
2019-02-20T14:10:13.949Z,4.30
2019-02-20T14:13:04.747Z,4.27
2019-02-20T14:15:54.992Z,4.20
2019-02-20T14:18:45.194Z,4.57
2019-02-20T14:21:35.915Z,4.30
2019-02-20T14:24:26.014Z,4.03
2019-02-20T14:27:17.277Z,4.13
2019-02-20T14:30:07.710Z,5.90
2019-02-20T14:32:58.681Z,5.40
2019-02-20T14:35:49.218Z,4.60
2019-02-20T14:38:40.435Z,4.70
2019-02-20T14:41:31.654Z,4.87
2019-02-20T14:44:22.335Z,4.93
2019-02-20T14:47:13.197Z,4.30
2019-02-20T14:50:04.854Z,3.67
2019-02-20T14:52:55.934Z,5.57
2019-02-20T14:55:46.665Z,4.17
2019-02-20T14:58:42.354Z,4.80
2019-02-20T15:01:32.734Z,4.33
2019-02-20T15:04:23.295Z,4.23
2019-02-20T15:07:21.274Z,4.13
2019-02-20T15:10:12.335Z,3.90
2019-02-20T15:13:02.857Z,4.20
2019-02-20T15:15:52.902Z,4.27
2019-02-20T15:18:43.250Z,4.40
2019-02-20T15:21:33.479Z,4.30
2019-02-20T15:24:23.898Z,5.10
2019-02-20T15:27:13.500Z,5.27
2019-02-20T15:30:04.376Z,4.83
2019-02-20T15:32:54.163Z,4.77
2019-02-20T15:35:44.472Z,4.80
2019-02-20T15:38:34.637Z,5.13
2019-02-20T15:41:25.566Z,4.23
2019-02-20T15:44:16.914Z,4.60
2019-02-20T15:47:07.922Z,4.37
2019-02-20T15:49:58.656Z,5.07
2019-02-20T15:52:49.953Z,5.40
2019-02-20T15:55:40.133Z,4.53
2019-02-20T15:58:31.304Z,5.17
2019-02-20T16:01:21.899Z,5.67
2019-02-20T16:04:12.554Z,4.57
2019-02-20T16:07:03.014Z,5.07
2019-02-20T16:09:53.701Z,5.00
2019-02-20T16:12:44.734Z,4.83
2019-02-20T16:15:35.022Z,5.30
2019-02-20T16:18:25.414Z,5.60
2019-02-20T16:21:16.174Z,5.67
2019-02-20T16:24:06.796Z,6.03
2019-02-20T16:26:56.839Z,5.63
2019-02-20T16:29:47.657Z,5.00
2019-02-20T16:32:37.695Z,4.90
2019-02-20T16:35:28.574Z,5.23
2019-02-20T16:38:19.116Z,6.20
2019-02-20T16:41:09.534Z,8.93
2019-02-20T16:43:59.116Z,7.53
2019-02-20T16:46:49.352Z,7.20
2019-02-20T16:49:39.218Z,6.77
2019-02-20T16:52:30.015Z,6.53
2019-02-20T16:55:20.305Z,8.83
2019-02-20T16:58:12.274Z,9.70
2019-02-20T17:01:02.478Z,6.67
2019-02-20T17:03:53.874Z,6.03
2019-02-20T17:06:44.556Z,7.17
2019-02-20T17:09:34.713Z,7.83
2019-02-20T17:12:25.394Z,7.53
2019-02-20T17:15:16.875Z,7.20
2019-02-20T17:18:07.678Z,6.73
2019-02-20T17:20:58.474Z,7.80
2019-02-20T17:23:49.033Z,7.63
2019-02-20T17:26:39.616Z,7.40
2019-02-20T17:29:29.843Z,8.23
2019-02-20T17:32:21.056Z,6.50
2019-02-20T17:35:10.982Z,7.23
2019-02-20T17:38:01.177Z,7.37
2019-02-20T17:40:52.415Z,8.60
2019-02-20T17:43:44.293Z,7.70
2019-02-20T17:46:34.916Z,8.20
2019-02-20T17:49:25.475Z,8.27
2019-02-20T17:52:15.658Z,8.80
2019-02-20T17:55:06.472Z,8.63
2019-02-20T17:57:56.899Z,7.37
2019-02-20T18:00:48.074Z,9.23
2019-02-20T18:03:38.335Z,7.67
2019-02-20T18:06:28.724Z,10.10
2019-02-20T18:09:19.100Z,8.17
2019-02-20T18:12:09.897Z,9.23
2019-02-20T18:14:59.839Z,9.30
2019-02-20T18:17:50.069Z,10.77
2019-02-20T18:20:43.317Z,10.33
2019-02-20T18:23:35.287Z,10.40
2019-02-20T18:26:25.277Z,11.20
2019-02-20T18:29:16.084Z,10.03
2019-02-20T18:32:07.112Z,11.13
2019-02-20T18:34:57.359Z,11.17
2019-02-20T18:37:47.794Z,10.17
2019-02-20T18:40:38.409Z,11.33
2019-02-20T18:43:47.257Z,11.80
2019-02-20T18:46:38.109Z,11.10
2019-02-20T18:49:28.301Z,10.13
2019-02-20T18:52:18.572Z,11.00
2019-02-20T18:55:10.406Z,11.27
2019-02-20T18:58:00.910Z,11.90
2019-02-20T19:00:50.838Z,11.00
2019-02-20T19:03:41.036Z,10.97
2019-02-20T19:06:31.395Z,11.23
2019-02-20T19:09:26.016Z,12.03
2019-02-20T19:12:40.175Z,10.43
2019-02-20T19:15:43.408Z,10.47
2019-02-20T19:19:26.181Z,9.80
2019-02-20T19:22:49.036Z,11.60
2019-02-20T19:26:15.655Z,12.00
2019-02-20T19:29:41.676Z,11.37
2019-02-20T19:32:59.489Z,13.43
2019-02-20T19:36:18.178Z,12.23
2019-02-20T19:40:16.915Z,11.83
2019-02-20T19:43:36.756Z,11.97
2019-02-20T19:47:05.233Z,11.50
2019-02-20T19:50:22.042Z,11.43
2019-02-20T19:53:23.100Z,11.50
2019-02-20T19:56:37.107Z,13.13
2019-02-20T20:00:00.345Z,11.47
2019-02-20T20:03:29.547Z,12.80
2019-02-20T20:06:59.001Z,11.90
2019-02-20T20:10:29.072Z,11.10
2019-02-20T20:13:47.503Z,11.90
2019-02-20T20:17:19.341Z,11.57
2019-02-20T20:20:20.373Z,11.60
2019-02-20T20:24:22.708Z,13.53
2019-02-20T20:27:58.187Z,11.23
2019-02-20T20:31:19.952Z,10.80
2019-02-20T20:34:56.355Z,10.67
2019-02-20T20:38:19.794Z,11.47
2019-02-20T20:41:56.474Z,10.27
2019-02-20T20:45:20.774Z,39.70
2019-02-20T20:49:03.379Z,31.97
2019-02-20T20:52:37.593Z,29.77
2019-02-20T20:56:03.098Z,27.30
2019-02-20T20:59:35.795Z,27.73
2019-02-20T21:02:42.694Z,22.93
2019-02-20T21:06:05.294Z,19.17
2019-02-20T21:09:14.034Z,18.50
2019-02-20T21:12:38.014Z,16.80
2019-02-20T21:15:56.563Z,14.33
2019-02-20T21:19:24.113Z,12.50
2019-02-20T21:23:03.963Z,12.60
2019-02-20T21:26:23.615Z,11.67
2019-02-20T21:29:51.555Z,10.30
2019-02-20T21:33:16.559Z,11.13
2019-02-20T21:36:46.023Z,12.17
2019-02-20T21:40:11.194Z,11.60
2019-02-20T21:43:40.220Z,12.07
2019-02-20T21:46:53.373Z,11.00
2019-02-20T21:50:34.397Z,15.20
2019-02-20T21:54:04.094Z,16.93
2019-02-20T21:57:05.194Z,17.87
2019-02-20T22:00:16.335Z,17.37
2019-02-20T22:03:56.555Z,15.37
2019-02-20T22:07:21.535Z,13.57
2019-02-20T22:11:05.217Z,13.60
2019-02-20T22:14:43.617Z,15.37
2019-02-20T22:18:08.014Z,16.47
2019-02-20T22:21:54.114Z,18.73
2019-02-20T22:25:16.435Z,16.57
2019-02-20T22:28:59.714Z,17.03
2019-02-20T22:32:03.117Z,16.63
2019-02-20T22:35:06.293Z,17.70
2019-02-20T22:38:48.442Z,36.60
2019-02-20T22:42:12.403Z,40.47
2019-02-20T22:45:47.386Z,38.67
2019-02-20T22:49:24.735Z,33.93
2019-02-20T22:52:29.673Z,29.57
2019-02-20T22:55:55.443Z,26.60
2019-02-20T22:59:17.908Z,24.43
2019-02-20T23:02:43.569Z,22.70
2019-02-20T23:06:17.214Z,23.03
2019-02-20T23:09:25.115Z,26.37
2019-02-20T23:12:38.602Z,23.50
2019-02-20T23:15:28.683Z,22.57
2019-02-20T23:18:18.670Z,21.10
2019-02-20T23:21:09.853Z,18.57
2019-02-20T23:24:00.920Z,21.17
2019-02-20T23:26:51.451Z,18.10
2019-02-20T23:29:41.835Z,20.40
2019-02-20T23:32:31.746Z,19.07
2019-02-20T23:35:22.756Z,17.27
2019-02-20T23:38:13.607Z,19.97
2019-02-20T23:41:05.515Z,19.07
2019-02-20T23:43:56.713Z,20.33
2019-02-20T23:46:47.215Z,20.97
2019-02-20T23:49:38.174Z,18.57
2019-02-20T23:52:28.716Z,25.87
2019-02-20T23:55:20.236Z,20.07
2019-02-20T23:58:10.573Z,25.77
